Airfield :
LOGIN :

Register | Disclaimer

   EN    FR    IT 

 










Legend :    VFR   Marginal VFR   IFR   Intensive IFR   Very Intensive IFR
Visi :
Ceiling :
>= 8 km
>= 3000ft
5 to 8 km
1000 to 3000 ft
1500m to 5 km
500 to 1000 ft
800 to 1500m
200 to 500 ft
< 800m
< 200 ft
Symbols :   Thunderstorms  Fog  Heavy snow  Heavy precipitations  Wind > 20 kt
SIGMETs :     Misc.  Thunderstorms  Icing  Turbulence  Mountain Waves  Volcanic Ashes






- Airport Elevation : 25 ft
- IATA code : QCY


EGXC - RAF Coningsby

CURRENT METAR :
  • 171750Z 34014KT 9999 -SHRA SCT022CB SCT045 11/07 Q1007 RMK WHT

EXPIRED METARs :
  • 171650Z 33002KT 9999 FEW022CB SCT030 14/08 Q1006 RMK BLU
  • 171550Z 31005KT 9999 SCT028 BKN045 13/07 Q1006 TEMPO 7000 SHRA SCT022CB RMK BLU TEMPO WHT
  • 171520Z 27005KT 9999 SCT028 BKN045 13/07 Q1006 TEMPO 7000 SHRA SCT022CB RMK BLU TEMPO WHT

TAF TAF EGXC
Valid from the 17 at 18:00 until the 18 at 12:00 UTC


171624Z 1718/1812 30007KT 9999 SCT030
TEMPO 1718/1720 6000 SHRA
PROB40
TEMPO 1718/1719 4000 +SHRA BKN020CB
PROB30
TEMPO 1807/1810 SCT020
TEMPO 1810/1812 7000 SHRA
PROB30
TEMPO 1811/1812 4000 +SHRA BKN022CB



MET'MAP, your aeronautical weather chart ! - Copyright ORBIFLY December 2007 - Disclaimer

ORBIFLY MET'MAP TEAM :

Programming & Development : Alexandra Zaïnal
Concept & original design : Baudouin d'Aumeries
Assistance for programming : Marc-Olivier Méhu
Technical & hardware support : Manuel Goepfert

Contact : metmap@orbifly.com




SOURCES & CREDITS :

   NOAA